Time;durP1;ratioP1;P1;durP2;ratioP2;P2;SDS_P1;SDS_P2;PMS_P1;PMS_P2;Temp;Humidity;BMP_temperature;BMP_pressure;BME280_temperature;BME280_humidity;BME280_pressure;Samples;Min_cycle;Max_cycle;Signal;HPM_P1;HPM_P2
2021/10/27 00:02:04;;;;;;;58.88;3.20;;;6.30;1.00;;;;;;5073342;28;20205;-68
2021/10/27 00:04:31;;;;;;;58.58;2.95;;;6.30;1.00;;;;;;5073676;28;20211;-68
2021/10/27 00:06:58;;;;;;;59.05;3.60;;;6.30;1.00;;;;;;5073189;28;20292;-68
2021/10/27 00:09:24;;;;;;;58.65;2.85;;;6.30;1.00;;;;;;5073160;28;20671;-68
2021/10/27 00:11:51;;;;;;;58.67;3.05;;;6.30;1.00;;;;;;5073157;28;20588;-68
2021/10/27 00:14:19;;;;;;;58.58;2.95;;;6.20;1.00;;;;;;5071127;28;20788;-69
2021/10/27 00:16:46;;;;;;;58.60;3.22;;;6.30;1.00;;;;;;5072670;28;20706;-68
2021/10/27 00:19:14;;;;;;;58.38;2.80;;;6.20;1.00;;;;;;5073173;28;20764;-68
2021/10/27 00:21:41;;;;;;;58.72;3.10;;;6.20;1.00;;;;;;5073153;28;20227;-68
2021/10/27 00:24:07;;;;;;;58.40;3.00;;;6.20;1.00;;;;;;5073034;28;20703;-68
2021/10/27 00:26:34;;;;;;;58.47;3.25;;;6.20;1.00;;;;;;5072492;28;20212;-68
2021/10/27 00:29:01;;;;;;;58.67;3.00;;;6.20;1.00;;;;;;5072584;28;20240;-68
2021/10/27 00:31:29;;;;;;;58.35;2.55;;;6.20;1.00;;;;;;5072559;28;20689;-68
2021/10/27 00:33:56;;;;;;;58.60;2.85;;;6.20;1.00;;;;;;5073041;28;20300;-68
2021/10/27 00:36:23;;;;;;;58.78;2.95;;;6.20;1.00;;;;;;5071960;28;20319;-68
2021/10/27 00:38:50;;;;;;;59.08;3.08;;;6.10;1.00;;;;;;5072882;28;20297;-67
2021/10/27 00:41:17;;;;;;;58.80;3.10;;;6.10;1.00;;;;;;5072846;28;20564;-67
2021/10/27 00:43:44;;;;;;;58.70;3.10;;;6.10;1.00;;;;;;5072588;28;20584;-68
2021/10/27 00:46:21;;;;;;;58.70;2.80;;;6.10;1.00;;;;;;5072359;28;20292;-67
2021/10/27 00:48:51;;;;;;;58.60;3.00;;;6.10;1.80;;;;;;5071309;28;20295;-68
2021/10/27 00:51:19;;;;;;;58.55;2.85;;;6.10;5.50;;;;;;5072448;28;20212;-68
2021/10/27 00:53:47;;;;;;;58.47;3.00;;;6.10;7.40;;;;;;5073000;28;20291;-67
2021/10/27 00:56:14;;;;;;;59.38;3.67;;;6.10;9.10;;;;;;5071904;28;20228;-68
2021/10/27 00:58:42;;;;;;;58.80;3.60;;;6.10;11.20;;;;;;5072426;28;20236;-68
2021/10/27 01:01:08;;;;;;;60.42;3.13;;;6.10;12.30;;;;;;5072402;28;20655;-67
2021/10/27 01:03:36;;;;;;;58.83;3.15;;;6.10;13.70;;;;;;5072235;28;20212;-68
2021/10/27 01:06:05;;;;;;;58.65;2.70;;;6.10;15.20;;;;;;5072003;28;20637;-68
2021/10/27 01:08:33;;;;;;;58.47;2.83;;;6.10;16.40;;;;;;5071939;28;20205;-68
2021/10/27 01:11:01;;;;;;;58.60;2.88;;;6.20;18.20;;;;;;5071905;28;20239;-68
2021/10/27 01:13:28;;;;;;;58.78;3.30;;;6.20;19.40;;;;;;5072013;28;20217;-68
2021/10/27 01:15:55;;;;;;;58.47;3.15;;;6.20;20.30;;;;;;5071981;28;20205;-68
2021/10/27 01:18:22;;;;;;;58.58;2.95;;;6.30;21.50;;;;;;5068834;28;20294;-68
2021/10/27 01:20:50;;;;;;;58.47;3.00;;;6.20;22.00;;;;;;5051187;28;20228;-68
2021/10/27 01:23:17;;;;;;;58.63;3.00;;;6.20;23.00;;;;;;5051636;28;20213;-68
2021/10/27 01:25:44;;;;;;;58.47;3.10;;;6.30;23.90;;;;;;5052029;28;20233;-68
2021/10/27 01:28:11;;;;;;;58.58;3.20;;;6.30;24.60;;;;;;5051955;28;20244;-68
2021/10/27 01:30:38;;;;;;;58.58;3.10;;;6.30;25.40;;;;;;5051667;28;20252;-67
2021/10/27 01:33:05;;;;;;;58.58;3.00;;;6.30;26.10;;;;;;5051757;28;20201;-68
2021/10/27 01:35:32;;;;;;;58.67;3.10;;;6.30;26.80;;;;;;5059011;28;20312;-67
2021/10/27 01:38:00;;;;;;;58.38;2.80;;;6.30;27.30;;;;;;5071758;28;20243;-68
2021/10/27 01:40:27;;;;;;;58.47;2.88;;;6.30;27.90;;;;;;5071724;28;20256;-68
2021/10/27 01:42:56;;;;;;;58.50;2.70;;;6.30;28.20;;;;;;5071688;28;20213;-68
2021/10/27 01:45:26;;;;;;;58.88;4.10;;;6.20;28.40;;;;;;5071675;28;20232;-68
2021/10/27 01:47:53;;;;;;;58.58;3.13;;;6.30;29.50;;;;;;5070841;28;20228;-68
2021/10/27 01:50:20;;;;;;;58.38;3.00;;;6.30;29.90;;;;;;5068417;28;20260;-68
2021/10/27 01:52:47;;;;;;;58.38;2.85;;;6.20;30.30;;;;;;5051352;28;20209;-68
2021/10/27 01:55:15;;;;;;;58.63;2.90;;;6.20;31.10;;;;;;5051453;28;20212;-68
2021/10/27 01:57:42;;;;;;;58.70;2.95;;;6.30;32.70;;;;;;5051420;28;20226;-68
2021/10/27 02:00:10;;;;;;;58.47;2.72;;;6.30;33.50;;;;;;5051450;28;20222;-68
2021/10/27 02:02:37;;;;;;;58.58;2.70;;;6.30;34.00;;;;;;5051563;28;20650;-67
2021/10/27 02:05:04;;;;;;;58.38;2.75;;;6.30;34.40;;;;;;5051437;28;20312;-68
2021/10/27 02:07:31;;;;;;;58.42;2.90;;;6.30;35.10;;;;;;5051251;28;20208;-68
2021/10/27 02:09:58;;;;;;;58.45;2.90;;;6.30;35.80;;;;;;5051087;28;20542;-68
2021/10/27 02:12:26;;;;;;;58.58;2.90;;;6.40;36.40;;;;;;5051246;28;20638;-68
2021/10/27 02:14:53;;;;;;;58.47;3.00;;;6.40;36.90;;;;;;5051630;28;20593;-68
2021/10/27 02:17:20;;;;;;;58.65;3.00;;;6.30;37.10;;;;;;5051242;28;20316;-68
2021/10/27 02:19:47;;;;;;;58.50;3.08;;;6.30;37.00;;;;;;5051345;28;20232;-68
2021/10/27 02:22:14;;;;;;;58.35;3.00;;;6.30;37.10;;;;;;5050302;28;20289;-68
2021/10/27 02:24:40;;;;;;;58.55;3.00;;;6.20;37.00;;;;;;5071126;28;20236;-68
2021/10/27 02:27:07;;;;;;;58.67;2.92;;;6.20;37.50;;;;;;5071352;28;20293;-68
2021/10/27 02:29:37;;;;;;;58.67;2.92;;;6.20;38.10;;;;;;5071050;28;20935;-68
2021/10/27 02:32:04;;;;;;;59.17;3.72;;;6.20;38.20;;;;;;5071337;28;20216;-68
2021/10/27 02:34:31;;;;;;;58.47;2.80;;;6.20;38.50;;;;;;5071148;28;20223;-68
2021/10/27 02:36:59;;;;;;;58.60;3.00;;;6.20;38.70;;;;;;5070728;28;20600;-68
2021/10/27 02:39:26;;;;;;;58.47;2.90;;;6.20;39.00;;;;;;5071458;28;20282;-68
2021/10/27 02:41:53;;;;;;;58.58;3.05;;;6.20;39.50;;;;;;5071145;28;20685;-68
2021/10/27 02:44:20;;;;;;;58.45;2.92;;;6.20;39.70;;;;;;5071100;28;20207;-68
2021/10/27 02:46:49;;;;;;;58.55;2.80;;;6.20;40.10;;;;;;5070918;28;20739;-68
2021/10/27 02:49:15;;;;;;;58.88;3.33;;;6.20;40.30;;;;;;5070776;28;20315;-68
2021/10/27 02:51:42;;;;;;;58.78;3.13;;;6.30;40.70;;;;;;5070773;28;20645;-68
2021/10/27 02:54:09;;;;;;;58.38;2.90;;;6.30;41.40;;;;;;5070797;28;20209;-68
2021/10/27 02:56:36;;;;;;;58.38;2.85;;;6.30;41.60;;;;;;5068630;28;20209;-68
2021/10/27 02:59:03;;;;;;;58.60;3.00;;;6.30;42.10;;;;;;5072337;28;20662;-68
2021/10/27 03:01:30;;;;;;;58.35;2.90;;;6.30;42.20;;;;;;5074801;28;20202;-67
2021/10/27 03:04:00;;;;;;;58.63;2.70;;;6.30;42.80;;;;;;5074354;28;20212;-68
2021/10/27 03:06:27;;;;;;;58.58;3.10;;;6.30;43.10;;;;;;5074387;28;20233;-68
2021/10/27 03:08:54;;;;;;;59.00;3.88;;;6.30;43.60;;;;;;5074757;28;20288;-68
2021/10/27 03:11:21;;;;;;;58.60;2.83;;;6.30;43.90;;;;;;5074425;28;20201;-68
2021/10/27 03:13:48;;;;;;;58.28;2.90;;;6.30;44.20;;;;;;5074330;28;20687;-68
2021/10/27 03:16:15;;;;;;;58.25;2.80;;;6.30;44.10;;;;;;5074095;28;20296;-68
2021/10/27 03:18:42;;;;;;;58.53;2.78;;;6.30;44.00;;;;;;5074213;28;20311;-68
2021/10/27 03:21:10;;;;;;;58.58;2.70;;;6.30;43.80;;;;;;5074443;28;20225;-68
2021/10/27 03:23:37;;;;;;;58.28;2.83;;;6.30;43.60;;;;;;5074579;28;20236;-68
2021/10/27 03:26:04;;;;;;;58.35;2.80;;;6.20;43.30;;;;;;5073688;28;20209;-68
2021/10/27 03:28:31;;;;;;;58.60;2.83;;;6.20;42.50;;;;;;5054883;28;20292;-68
2021/10/27 03:30:58;;;;;;;58.95;3.03;;;6.10;41.70;;;;;;5053927;28;20312;-68
2021/10/27 03:33:24;;;;;;;58.47;2.90;;;6.10;41.50;;;;;;5053523;28;20201;-68
2021/10/27 03:35:51;;;;;;;58.58;2.78;;;6.00;41.30;;;;;;5053670;28;20209;-68
2021/10/27 03:38:20;;;;;;;58.28;2.90;;;6.00;41.40;;;;;;5054043;28;20235;-68
2021/10/27 03:40:46;;;;;;;58.67;2.95;;;6.00;42.40;;;;;;5054067;28;20312;-68
2021/10/27 03:43:15;;;;;;;58.45;3.00;;;6.10;42.40;;;;;;5053742;28;20296;-68
2021/10/27 03:45:42;;;;;;;58.38;3.20;;;6.00;42.30;;;;;;5053158;28;20798;-68
2021/10/27 03:48:09;;;;;;;58.58;3.00;;;6.10;43.00;;;;;;5054009;28;20204;-68
2021/10/27 03:50:36;;;;;;;58.35;2.97;;;6.10;43.20;;;;;;5053602;28;20230;-68
2021/10/27 03:53:03;;;;;;;58.55;3.00;;;6.10;43.80;;;;;;5053462;28;20678;-68
2021/10/27 03:55:31;;;;;;;58.58;2.90;;;6.10;44.40;;;;;;5053404;28;20233;-68
2021/10/27 03:57:59;;;;;;;59.00;3.20;;;6.00;43.10;;;;;;5052175;28;20229;-68
2021/10/27 04:00:26;;;;;;;60.05;3.80;;;6.00;43.10;;;;;;5053557;28;20229;-68
2021/10/27 04:02:54;;;;;;;58.40;2.90;;;6.00;42.10;;;;;;5053750;28;20580;-68
2021/10/27 04:05:21;;;;;;;58.72;2.92;;;5.90;42.10;;;;;;5053201;28;20581;-68
2021/10/27 04:07:48;;;;;;;58.47;3.08;;;5.90;42.60;;;;;;5053306;28;20222;-68
2021/10/27 04:10:15;;;;;;;58.45;3.00;;;5.90;43.30;;;;;;5052311;28;20320;-68
2021/10/27 04:12:43;;;;;;;58.58;2.90;;;6.00;43.10;;;;;;5053045;28;20633;-68
2021/10/27 04:15:12;;;;;;;58.38;3.00;;;5.90;44.00;;;;;;5053224;28;20568;-68
2021/10/27 04:17:40;;;;;;;58.47;3.05;;;5.90;43.40;;;;;;5053150;28;20226;-68
2021/10/27 04:20:08;;;;;;;58.25;2.80;;;5.90;43.60;;;;;;5053285;28;20243;-68
2021/10/27 04:22:37;;;;;;;58.33;2.88;;;5.90;43.50;;;;;;5053295;28;20230;-68
2021/10/27 04:25:05;;;;;;;58.40;3.00;;;5.90;43.70;;;;;;5053007;28;20205;-68
2021/10/27 04:27:32;;;;;;;58.40;2.60;;;5.90;43.60;;;;;;5053082;28;20292;-68
2021/10/27 04:30:01;;;;;;;58.47;3.10;;;5.90;44.20;;;;;;5051359;28;20308;-68
2021/10/27 04:32:28;;;;;;;58.38;2.60;;;5.90;44.50;;;;;;5052904;28;20224;-68
2021/10/27 04:34:54;;;;;;;58.50;2.83;;;5.90;45.20;;;;;;5052715;28;20233;-68
2021/10/27 04:37:22;;;;;;;58.47;2.90;;;5.90;45.40;;;;;;5052701;28;20289;-68
2021/10/27 04:39:49;;;;;;;58.90;3.40;;;5.90;45.40;;;;;;5052738;28;20320;-68
2021/10/27 04:42:16;;;;;;;58.45;3.00;;;5.90;45.40;;;;;;5052789;28;20265;-68
2021/10/27 04:44:43;;;;;;;59.58;3.20;;;5.80;45.50;;;;;;5052964;28;20216;-68
2021/10/27 04:47:11;;;;;;;58.45;2.75;;;5.90;45.70;;;;;;5052405;28;20581;-68
2021/10/27 04:49:38;;;;;;;58.47;3.00;;;5.90;46.50;;;;;;5052945;28;20247;-68
2021/10/27 04:52:05;;;;;;;58.58;2.85;;;6.00;47.50;;;;;;5052479;28;20734;-68
2021/10/27 04:54:32;;;;;;;58.42;2.70;;;6.00;48.00;;;;;;5052072;28;20241;-68
2021/10/27 04:56:59;;;;;;;58.58;2.85;;;6.00;48.30;;;;;;5052386;28;20209;-68
2021/10/27 04:59:29;;;;;;;58.58;2.90;;;5.90;48.00;;;;;;5052311;28;20243;-68
2021/10/27 05:01:56;;;;;;;58.40;2.80;;;5.90;48.20;;;;;;5051220;28;20297;-68
2021/10/27 05:04:24;;;;;;;58.47;2.88;;;5.90;48.60;;;;;;5052496;28;20237;-68
2021/10/27 05:06:51;;;;;;;58.70;2.90;;;6.00;49.00;;;;;;5051717;28;20228;-68
2021/10/27 05:09:17;;;;;;;58.40;3.00;;;6.00;49.20;;;;;;5052163;28;20653;-68
2021/10/27 05:11:44;;;;;;;58.38;2.95;;;6.00;49.70;;;;;;5051956;28;20241;-68
2021/10/27 05:14:12;;;;;;;58.40;3.15;;;6.00;50.00;;;;;;5051869;28;20219;-68
2021/10/27 05:16:39;;;;;;;58.38;2.88;;;6.00;50.50;;;;;;5051595;28;20840;-68
2021/10/27 05:19:06;;;;;;;58.70;3.35;;;6.00;50.70;;;;;;5052493;28;20316;-68
2021/10/27 05:21:34;;;;;;;58.67;3.42;;;6.00;50.90;;;;;;5051842;28;20216;-68
2021/10/27 05:24:01;;;;;;;58.38;2.85;;;6.10;51.10;;;;;;5052241;28;20301;-68
2021/10/27 05:26:28;;;;;;;58.40;2.97;;;6.00;51.20;;;;;;5051648;28;20648;-68
2021/10/27 05:28:55;;;;;;;58.38;2.72;;;6.00;50.80;;;;;;5051731;28;20688;-68
2021/10/27 05:31:21;;;;;;;58.45;3.00;;;6.00;50.80;;;;;;5052107;28;20297;-68
2021/10/27 05:33:49;;;;;;;58.67;3.50;;;5.90;50.60;;;;;;5060210;28;20330;-68
2021/10/27 05:36:16;;;;;;;58.38;3.00;;;5.90;50.60;;;;;;5071068;28;20210;-68
2021/10/27 05:38:45;;;;;;;58.30;2.88;;;5.90;50.20;;;;;;5071894;28;20228;-68
2021/10/27 05:41:12;;;;;;;58.38;2.90;;;5.80;49.90;;;;;;5072180;28;20229;-68
2021/10/27 05:43:39;;;;;;;58.38;2.83;;;5.80;50.30;;;;;;5071800;28;20212;-68
2021/10/27 05:46:06;;;;;;;58.25;2.90;;;5.80;49.70;;;;;;5071444;28;20205;-68
2021/10/27 05:48:37;;;;;;;58.75;3.00;;;5.80;49.00;;;;;;5071486;28;20208;-68
2021/10/27 05:51:16;;;;;;;58.47;2.72;;;5.70;48.20;;;;;;5071523;28;20310;-68
2021/10/27 05:56:29;;;;;;;58.47;2.83;;;5.50;46.80;;;;;;5071156;28;20327;-68
2021/10/27 05:58:56;;;;;;;58.58;3.47;;;5.50;46.70;;;;;;5071848;28;20221;-68
2021/10/27 06:01:23;;;;;;;58.50;2.75;;;5.50;46.80;;;;;;5071717;28;20207;-68
2021/10/27 06:03:50;;;;;;;58.28;2.80;;;5.50;47.10;;;;;;5071692;28;20243;-68
2021/10/27 06:06:16;;;;;;;58.67;2.90;;;5.50;47.10;;;;;;5069464;28;20647;-68
2021/10/27 06:08:45;;;;;;;58.28;2.53;;;5.40;46.70;;;;;;5071607;28;20207;-68
2021/10/27 06:11:13;;;;;;;58.50;2.90;;;5.40;46.50;;;;;;5071289;28;20235;-67
2021/10/27 06:13:45;;;;;;;58.40;2.80;;;5.30;47.10;;;;;;5071151;28;20240;-68
2021/10/27 06:16:12;;;;;;;58.50;2.80;;;5.30;46.10;;;;;;5070941;28;20205;-68
2021/10/27 06:18:39;;;;;;;58.35;2.72;;;5.30;46.60;;;;;;5071518;28;20767;-67
2021/10/27 06:21:07;;;;;;;58.45;2.70;;;5.30;46.80;;;;;;5071469;28;20647;-68
2021/10/27 06:23:33;;;;;;;58.40;2.63;;;5.40;47.40;;;;;;5071373;28;20699;-68
2021/10/27 06:26:03;;;;;;;58.45;3.10;;;5.40;47.80;;;;;;5070991;28;20669;-68
2021/10/27 06:28:32;;;;;;;58.28;2.80;;;5.50;48.90;;;;;;5071115;28;20209;-68
2021/10/27 06:31:04;;;;;;;58.38;2.67;;;5.60;49.70;;;;;;5071425;28;20225;-68
2021/10/27 06:33:45;;;;;;;58.40;2.75;;;5.60;50.50;;;;;;5071572;28;20213;-68
2021/10/27 06:36:17;;;;;;;58.50;3.20;;;5.70;51.30;;;;;;5074418;28;20209;-68
2021/10/27 06:47:11;;;;;;;58.30;2.58;;;6.00;54.90;;;;;;5074297;28;20198;-68
2021/10/27 06:49:38;;;;;;;58.38;2.83;;;6.10;55.90;;;;;;5074864;28;20333;-68
2021/10/27 06:52:06;;;;;;;58.33;3.25;;;6.20;56.20;;;;;;5074957;28;20316;-68
2021/10/27 06:54:33;;;;;;;58.38;2.88;;;6.30;57.40;;;;;;5074656;28;20231;-68
2021/10/27 06:57:01;;;;;;;58.40;2.67;;;6.40;58.40;;;;;;5074233;28;20756;-68
2021/10/27 06:59:32;;;;;;;58.08;2.83;;;6.50;59.10;;;;;;5074357;28;20316;-68
2021/10/27 07:04:56;;;;;;;58.47;2.90;;;6.40;58.10;;;;;;5048461;28;20197;-68
2021/10/27 07:15:40;;;;;;;58.80;2.85;;;6.30;54.10;;;;;;5053922;28;20698;-67
2021/10/27 07:18:07;;;;;;;58.17;2.67;;;6.30;52.80;;;;;;5054489;28;20210;-67
2021/10/27 07:20:34;;;;;;;58.25;2.85;;;6.30;52.30;;;;;;5054338;28;20324;-68
2021/10/27 07:23:01;;;;;;;58.60;2.90;;;6.30;52.50;;;;;;5054145;28;20300;-68
2021/10/27 07:25:32;;;;;;;58.35;2.67;;;6.40;52.90;;;;;;5053693;28;20632;-67
2021/10/27 07:28:00;;;;;;;58.38;3.00;;;6.50;53.30;;;;;;5053995;28;20272;-67
2021/10/27 07:30:33;;;;;;;58.17;2.72;;;6.50;53.60;;;;;;5053816;28;20232;-67
2021/10/27 07:33:00;;;;;;;58.38;3.10;;;6.60;53.20;;;;;;5053835;28;20301;-68
2021/10/27 07:35:35;;;;;;;58.08;2.85;;;6.60;52.50;;;;;;5053772;28;20202;-68
2021/10/27 07:40:48;;;;;;;58.80;3.35;;;6.80;51.80;;;;;;5053877;28;20602;-67
2021/10/27 07:43:18;;;;;;;58.38;2.60;;;6.80;51.10;;;;;;5052717;28;20312;-67
2021/10/27 07:45:45;;;;;;;58.28;2.90;;;6.80;49.90;;;;;;5053566;28;20455;-67
2021/10/27 07:48:14;;;;;;;58.17;2.80;;;6.90;50.00;;;;;;5053769;28;20264;-68
2021/10/27 07:50:41;;;;;;;58.17;2.75;;;7.00;50.20;;;;;;5065682;28;20556;-67
2021/10/27 07:53:10;;;;;;;58.25;2.75;;;7.10;50.30;;;;;;5074310;28;20227;-66
2021/10/27 07:55:40;;;;;;;58.17;2.80;;;7.20;49.40;;;;;;5073646;28;20582;-66
2021/10/27 07:58:07;;;;;;;58.28;2.70;;;7.30;50.30;;;;;;5057609;28;20209;-65
2021/10/27 08:00:36;;;;;;;58.28;2.70;;;7.40;47.70;;;;;;5053286;28;20222;-66
2021/10/27 08:03:03;;;;;;;58.13;2.57;;;7.50;47.10;;;;;;5053819;28;20203;-66
2021/10/27 08:05:32;;;;;;;58.47;2.88;;;7.60;44.80;;;;;;5052875;28;20501;-67
2021/10/27 08:07:59;;;;;;;58.50;2.92;;;7.70;43.50;;;;;;5053181;28;20302;-66
2021/10/27 08:10:27;;;;;;;58.22;2.75;;;7.80;41.10;;;;;;5053394;28;20249;-65
2021/10/27 08:12:54;;;;;;;58.70;3.30;;;7.80;38.60;;;;;;5053290;28;20290;-66
2021/10/27 08:15:21;;;;;;;58.38;2.70;;;7.90;36.80;;;;;;5053478;28;20310;-66
2021/10/27 08:17:50;;;;;;;58.45;2.90;;;7.90;30.40;;;;;;5053227;28;20202;-66
2021/10/27 08:20:19;;;;;;;59.27;3.57;;;8.00;27.00;;;;;;5053111;28;20227;-65
2021/10/27 08:22:49;;;;;;;59.17;3.40;;;8.00;26.20;;;;;;5053412;28;20447;-67
2021/10/27 08:25:22;;;;;;;58.63;2.90;;;8.10;23.60;;;;;;5053306;28;20297;-66
2021/10/27 08:27:49;;;;;;;58.72;2.88;;;8.10;21.50;;;;;;5053602;28;20218;-69
2021/10/27 08:30:19;;;;;;;58.30;2.80;;;8.30;18.60;;;;;;5070328;28;20225;-65
2021/10/27 08:32:51;;;;;;;59.20;3.50;;;8.30;14.20;;;;;;5072855;28;20448;-65
2021/10/27 08:35:19;;;;;;;58.90;3.50;;;8.40;11.90;;;;;;5071013;28;20509;-67
2021/10/27 08:37:48;;;;;;;58.23;2.93;;;8.50;10.50;;;;;;5072091;28;20480;-65
2021/10/27 08:40:16;;;;;;;58.27;2.87;;;8.60;5.80;;;;;;5072463;28;20480;-68
2021/10/27 08:42:45;;;;;;;58.33;2.80;;;8.70;3.70;;;;;;5072984;28;20448;-65
2021/10/27 08:45:12;;;;;;;58.03;2.70;;;8.90;1.00;;;;;;5073138;28;20975;-65
2021/10/27 08:47:41;;;;;;;58.27;2.90;;;9.00;1.00;;;;;;5072494;28;20534;-68
2021/10/27 08:50:10;;;;;;;58.00;2.80;;;9.10;1.00;;;;;;5072439;28;20874;-66
2021/10/27 08:52:40;;;;;;;58.07;2.90;;;9.30;1.00;;;;;;5072631;28;20499;-69
2021/10/27 08:55:10;;;;;;;58.17;2.90;;;9.50;1.00;;;;;;5072380;28;20507;-66
2021/10/27 08:57:37;;;;;;;58.23;2.80;;;9.60;1.00;;;;;;5071662;28;20825;-66
2021/10/27 09:00:09;;;;;;;58.27;2.80;;;9.70;1.00;;;;;;5070280;28;20554;-67
2021/10/27 09:02:50;;;;;;;58.10;2.80;;;9.90;1.00;;;;;;5072013;28;20450;-68
2021/10/27 09:16:35;;;;;;;58.17;2.80;;;10.80;1.00;;;;;;5071970;28;20464;-66
2021/10/27 10:06:11;;;;;;;57.87;2.50;;;22.70;1.00;;;;;;5051085;28;20426;-65
2021/10/27 10:08:38;;;;;;;57.87;2.50;;;22.50;1.00;;;;;;5052462;28;20482;-66
2021/10/27 10:11:05;;;;;;;58.37;2.73;;;22.70;1.00;;;;;;5055198;28;20482;-65
2021/10/27 10:13:36;;;;;;;57.77;2.50;;;23.00;1.00;;;;;;5054451;28;20920;-66
2021/10/27 10:16:03;;;;;;;58.00;2.20;;;23.70;1.00;;;;;;5055291;28;20454;-66
2021/10/27 10:18:31;;;;;;;57.73;2.30;;;24.40;1.00;;;;;;5055047;28;20484;-66
2021/10/27 10:21:01;;;;;;;57.90;2.77;;;24.60;1.00;;;;;;5054891;28;20503;-66
2021/10/27 10:23:28;;;;;;;57.70;2.20;;;24.70;1.00;;;;;;5055439;28;20914;-67
2021/10/27 10:25:56;;;;;;;57.63;1.93;;;25.10;1.00;;;;;;5054524;28;20995;-66
2021/10/27 10:28:26;;;;;;;57.97;2.40;;;25.00;1.00;;;;;;5055142;28;20528;-66
2021/10/27 10:30:57;;;;;;;58.20;2.10;;;25.10;1.00;;;;;;5055519;28;20470;-66
2021/10/27 10:33:41;;;;;;;58.53;2.63;;;25.30;1.00;;;;;;5054725;28;20470;-65
2021/10/27 10:36:12;;;;;;;58.60;2.50;;;25.50;1.00;;;;;;5065986;28;20486;-66
2021/10/27 10:41:49;;;;;;;57.43;2.00;;;25.70;1.00;;;;;;5074489;28;20515;-66
2021/10/27 10:58:34;;;;;;;58.77;2.40;;;30.60;1.00;;;;;;5074555;28;20509;-67
2021/10/27 11:01:32;;;;;;;57.27;1.90;;;31.50;1.00;;;;;;5074194;28;20899;-66
2021/10/27 11:23:47;;;;;;;57.27;2.10;;;32.80;99.90;;;;;;5054148;28;20426;-66
2021/10/27 11:40:33;;;;;;;57.17;2.10;;;34.00;99.90;;;;;;5052486;28;20566;-67
2021/10/27 11:43:03;;;;;;;56.97;1.90;;;35.20;99.90;;;;;;5053532;28;20960;-71
2021/10/27 11:45:52;;;;;;;57.23;2.10;;;35.90;99.90;;;;;;5053520;28;20459;-69
2021/10/27 11:48:30;;;;;;;57.20;2.27;;;36.60;99.90;;;;;;5053900;28;20453;-66
2021/10/27 11:50:57;;;;;;;57.07;2.00;;;36.40;99.90;;;;;;5053725;28;20495;-67
2021/10/27 11:53:26;;;;;;;57.27;2.20;;;35.70;99.90;;;;;;5053381;28;20540;-66
2021/10/27 11:55:54;;;;;;;57.03;1.80;;;35.50;99.90;;;;;;5053213;28;20480;-67
2021/10/27 11:58:23;;;;;;;57.70;3.03;;;35.70;99.90;;;;;;5053585;28;21051;-67
2021/10/27 12:00:58;;;;;;;57.17;1.90;;;36.30;99.90;;;;;;5053268;28;20480;-66
2021/10/27 12:03:38;;;;;;;57.10;1.80;;;36.80;99.90;;;;;;5053837;28;20942;-66
2021/10/27 12:06:08;;;;;;;56.97;1.80;;;37.10;99.90;;;;;;5053476;28;20892;-66
2021/10/27 12:11:38;;;;;;;57.00;1.80;;;37.40;99.90;;;;;;5051775;28;20551;-67
2021/10/27 12:14:17;;;;;;;56.67;1.80;;;38.00;99.90;;;;;;5052755;28;20968;-67
2021/10/27 12:17:12;;;;;;;56.80;1.77;;;38.00;99.90;;;;;;5052851;28;20444;-67
2021/10/27 12:19:38;;;;;;;57.10;1.70;;;37.60;99.90;;;;;;5053393;28;20461;-67
2021/10/27 12:22:08;;;;;;;56.77;1.90;;;37.40;99.90;;;;;;5051550;28;20444;-68
2021/10/27 12:24:38;;;;;;;56.87;1.90;;;38.30;99.90;;;;;;5052676;28;20501;-67
2021/10/27 12:27:20;;;;;;;57.07;1.93;;;39.60;99.90;;;;;;5052719;28;20450;-68
2021/10/27 12:29:53;;;;;;;56.87;1.80;;;39.90;99.90;;;;;;5053144;28;20880;-70
2021/10/27 12:32:20;;;;;;;56.80;1.87;;;40.50;99.90;;;;;;5052106;28;20447;-68
2021/10/27 12:34:49;;;;;;;57.07;2.13;;;41.40;99.90;;;;;;5052685;28;20448;-65
2021/10/27 12:37:32;;;;;;;56.70;1.90;;;42.30;99.90;;;;;;5052605;28;20454;-65
2021/10/27 12:40:18;;;;;;;56.33;1.90;;;43.40;99.90;;;;;;5053034;28;20495;-65
2021/10/27 12:42:45;;;;;;;56.67;2.10;;;43.40;99.90;;;;;;5052618;28;20456;-64
2021/10/27 12:45:12;;;;;;;56.90;2.20;;;43.40;99.90;;;;;;5052418;28;20460;-65
2021/10/27 12:47:40;;;;;;;56.83;1.90;;;43.80;99.90;;;;;;5052280;28;20539;-67
2021/10/27 12:50:11;;;;;;;56.47;1.90;;;43.70;99.90;;;;;;5052796;28;20491;-67
2021/10/27 12:52:42;;;;;;;56.70;2.10;;;43.20;99.90;;;;;;5052844;28;20447;-67
2021/10/27 12:55:11;;;;;;;57.57;3.40;;;43.10;99.90;;;;;;5070825;28;20443;-67
2021/10/27 12:58:12;;;;;;;56.90;2.10;;;43.90;99.90;;;;;;5072223;28;20450;-67
2021/10/27 13:00:56;;;;;;;56.47;1.60;;;43.80;99.90;;;;;;5068103;28;20479;-67
2021/10/27 13:06:29;;;;;;;56.77;1.70;;;42.90;99.90;;;;;;5071685;28;20460;-64
2021/10/27 13:14:35;;;;;;;56.57;1.73;;;42.80;99.90;;;;;;5071762;28;20447;-65
2021/10/27 13:20:14;;;;;;;56.77;1.87;;;43.10;99.90;;;;;;5072060;28;20936;-67
2021/10/27 13:30:55;;;;;;;56.50;2.07;;;43.70;99.90;;;;;;5071829;28;20843;-67
2021/10/27 13:33:24;;;;;;;56.77;1.80;;;43.80;99.90;;;;;;5071890;28;20451;-67
2021/10/27 13:35:51;;;;;;;56.30;1.93;;;44.20;99.90;;;;;;5071148;28;20458;-67
2021/10/27 13:38:20;;;;;;;56.57;1.63;;;44.40;99.90;;;;;;5072030;28;20443;-67
2021/10/27 13:40:47;;;;;;;56.47;1.90;;;44.40;99.90;;;;;;5072047;28;20521;-70
2021/10/27 13:43:18;;;;;;;57.40;2.40;;;45.00;99.90;;;;;;5071494;28;20935;-68
2021/10/27 13:45:56;;;;;;;56.13;2.00;;;45.50;99.90;;;;;;5071314;28;20478;-67
2021/10/27 13:48:34;;;;;;;56.70;1.90;;;44.90;99.90;;;;;;5071708;28;20450;-67
2021/10/27 14:05:57;;;;;;;56.63;1.80;;;43.50;99.90;;;;;;5071223;28;20840;-64
2021/10/27 14:07:41;;;;;;;56.80;2.00;;;43.90;99.90;;;;;;5071076;28;20832;-67
2021/10/27 14:10:12;;;;;;;56.70;1.70;;;43.40;99.90;;;;;;5071673;28;20837;-65
2021/10/27 14:12:44;;;;;;;56.70;1.80;;;42.50;99.90;;;;;;5071284;28;20549;-69
2021/10/27 14:15:37;;;;;;;56.77;1.80;;;42.00;99.90;;;;;;5071275;28;20482;-67
2021/10/27 14:40:17;;;;;;;56.97;1.97;;;36.20;99.90;;;;;;5071095;28;20446;-69
2021/10/27 14:51:22;;;;;;;57.23;1.93;;;32.50;99.90;;;;;;5051140;28;20501;-67
2021/10/27 15:21:15;;;;;;;57.90;2.30;;;25.70;99.90;;;;;;5074024;28;20499;-66
2021/10/27 15:24:03;;;;;;;59.63;2.67;;;25.20;99.90;;;;;;5074173;28;20505;-66
2021/10/27 15:29:36;;;;;;;57.90;2.20;;;24.20;1.00;;;;;;5073902;28;20577;-66
2021/10/27 15:35:17;;;;;;;57.93;2.20;;;23.20;1.00;;;;;;5074212;28;20497;-65
2021/10/27 15:40:42;;;;;;;58.77;2.50;;;22.40;1.00;;;;;;5073794;28;20439;-66
2021/10/27 15:51:42;;;;;;;58.27;2.70;;;20.10;1.00;;;;;;5073491;28;20566;-67
2021/10/27 15:54:09;;;;;;;57.97;2.50;;;19.40;1.00;;;;;;5073939;28;20448;-68
2021/10/27 15:56:36;;;;;;;58.07;2.50;;;18.80;1.00;;;;;;5073417;28;20498;-66
2021/10/27 15:59:05;;;;;;;58.07;2.80;;;18.30;1.00;;;;;;5073273;28;20800;-66
2021/10/27 16:01:33;;;;;;;58.30;2.50;;;17.70;1.00;;;;;;5071710;28;20452;-66
2021/10/27 16:03:59;;;;;;;58.33;2.60;;;17.20;1.00;;;;;;5073987;28;20823;-66
2021/10/27 16:06:28;;;;;;;58.07;2.40;;;16.80;1.00;;;;;;5071526;28;20536;-66
2021/10/27 16:08:57;;;;;;;58.03;2.97;;;16.30;1.00;;;;;;5073345;28;20457;-66
2021/10/27 16:11:24;;;;;;;58.30;2.60;;;16.00;1.00;;;;;;5072936;28;20487;-66
2021/10/27 16:13:51;;;;;;;58.90;3.40;;;15.60;1.00;;;;;;5073186;28;20456;-66
2021/10/27 16:16:20;;;;;;;58.70;3.00;;;15.30;1.00;;;;;;5073238;28;20964;-66
2021/10/27 16:18:47;;;;;;;58.33;2.63;;;15.00;1.00;;;;;;5073000;28;20483;-66
2021/10/27 16:21:14;;;;;;;58.33;2.60;;;14.70;1.00;;;;;;5073212;28;20494;-69
2021/10/27 16:23:41;;;;;;;58.27;2.67;;;14.50;1.00;;;;;;5073313;28;20448;-65
2021/10/27 16:26:08;;;;;;;58.17;2.73;;;14.30;1.00;;;;;;5072651;28;20486;-67
2021/10/27 16:28:35;;;;;;;58.27;2.70;;;14.10;1.00;;;;;;5073446;28;20522;-65
2021/10/27 16:31:03;;;;;;;58.97;2.90;;;13.90;1.00;;;;;;5072418;28;20490;-68
2021/10/27 16:33:32;;;;;;;58.87;3.00;;;13.60;1.00;;;;;;5070541;28;20777;-65
2021/10/27 16:35:59;;;;;;;58.37;3.00;;;13.30;1.00;;;;;;5072826;28;20819;-66
2021/10/27 16:38:26;;;;;;;58.67;2.70;;;13.10;1.00;;;;;;5072723;28;20454;-66
2021/10/27 16:40:53;;;;;;;58.40;2.67;;;13.00;1.00;;;;;;5072532;28;20899;-67
2021/10/27 16:43:22;;;;;;;59.20;3.40;;;12.80;1.00;;;;;;5072492;28;20507;-65
2021/10/27 16:45:51;;;;;;;58.37;2.60;;;12.70;1.00;;;;;;5072376;28;20451;-66
2021/10/27 16:48:18;;;;;;;58.57;2.80;;;12.60;1.00;;;;;;5071923;28;20473;-66
2021/10/27 16:50:46;;;;;;;58.63;2.90;;;12.50;1.00;;;;;;5071899;28;20565;-69
2021/10/27 16:53:13;;;;;;;58.40;2.87;;;12.30;1.00;;;;;;5071723;28;20974;-65
2021/10/27 16:55:40;;;;;;;58.83;2.80;;;12.20;1.00;;;;;;5071984;28;20465;-66
2021/10/27 16:58:07;;;;;;;58.73;2.97;;;12.10;1.00;;;;;;5072167;28;20446;-68
2021/10/27 17:00:34;;;;;;;58.80;2.93;;;12.00;1.00;;;;;;5072006;28;20536;-66
2021/10/27 17:03:01;;;;;;;58.70;3.30;;;11.90;1.00;;;;;;5072268;28;20878;-68